Main page
METAR-TAF:

METAR-TAF

Airports :

Antofagasta, Chile

Andrés Sabella Gálvez International Airport

latitude: 23-26S, longitude: 070-26W, elevation: 135 m

Current weather observation

The report was made 1 hour and 11 minutes ago, at 16:00 UTC
Wind 8 kt from the North/Northwest
Temperature 20°C
Humidity 53%
Pressure 1018 hPa
Visibility 10 km or more
no clouds below 1500 m and no cumulonimbus

METAR: SCFA 261600Z 34008KT CAVOK 20/10 Q1018 NOSIG

Time: 13:11 (17:11 UTC)

Forecast

The report was made 6 hours and 21 minutes ago, at 10:50 UTC
Forecast valid from 26 at 12 UTC to 27 at 12 UTC
Wind 10 kt from the North
Visibility 10 km or more
Overcast at a height of 3000 ft
Becoming
from 26 at 19 UTC to 26 at 21 UTC
Wind 10 kt from the South/Southwest
Broken clouds at a height of 3000 ft
Becoming
from 27 at 01 UTC to 27 at 03 UTC
Wind 4 kt from the South
Few clouds at a height of 2000 ft

TAF: SCFA 261050Z 2612/2712 36010KT 9999 OVC030 TX19/2617Z TN11/2708Z BECMG 2619/2621 21010KT BKN030 BECMG 2701/2703 19004KT FEW020

Weather observations and forecasts of more than 4000 airports (METAR and TAF reports).

The available stations are represented by yellow and red dots on the map.

Hover mouse over dot to see the name of the station.

Then click to see weather observations and forecasts.

To change the map : click on the green buttons with a black cross to zoom in, on the green button with a dash to zoom out, or on the green arrows for adjacent maps.


METAR-TAF: